sensor_id;sensor_type;location;lat;lon;timestamp;temperature;humidity
37052;DHT22;22964;52.272;13.356;2022-12-07T00:00:40;7.50;81.20
37052;DHT22;22964;52.272;13.356;2022-12-07T00:03:06;7.50;81.10
37052;DHT22;22964;52.272;13.356;2022-12-07T00:05:32;7.40;81.00
37052;DHT22;22964;52.272;13.356;2022-12-07T00:07:57;7.40;81.00
37052;DHT22;22964;52.272;13.356;2022-12-07T00:10:23;7.40;81.80
37052;DHT22;22964;52.272;13.356;2022-12-07T00:12:48;7.40;80.90
37052;DHT22;22964;52.272;13.356;2022-12-07T00:15:15;7.40;80.80
37052;DHT22;22964;52.272;13.356;2022-12-07T00:17:41;7.40;80.50
37052;DHT22;22964;52.272;13.356;2022-12-07T00:20:07;7.40;80.50
37052;DHT22;22964;52.272;13.356;2022-12-07T00:22:36;7.30;80.00
37052;DHT22;22964;52.272;13.356;2022-12-07T00:25:01;7.30;79.90
37052;DHT22;22964;52.272;13.356;2022-12-07T00:27:27;7.30;79.60
37052;DHT22;22964;52.272;13.356;2022-12-07T00:29:53;7.20;79.10
37052;DHT22;22964;52.272;13.356;2022-12-07T00:32:18;7.20;78.80
37052;DHT22;22964;52.272;13.356;2022-12-07T00:34:44;7.10;78.80
37052;DHT22;22964;52.272;13.356;2022-12-07T00:37:10;7.10;78.70
37052;DHT22;22964;52.272;13.356;2022-12-07T00:39:35;7.10;78.50
37052;DHT22;22964;52.272;13.356;2022-12-07T00:42:01;7.10;78.40
37052;DHT22;22964;52.272;13.356;2022-12-07T00:44:27;7.00;78.20
37052;DHT22;22964;52.272;13.356;2022-12-07T00:46:52;7.00;78.20
37052;DHT22;22964;52.272;13.356;2022-12-07T00:49:18;6.90;78.10
37052;DHT22;22964;52.272;13.356;2022-12-07T00:51:44;6.90;78.10
37052;DHT22;22964;52.272;13.356;2022-12-07T00:54:09;6.80;77.80
37052;DHT22;22964;52.272;13.356;2022-12-07T00:56:35;6.80;77.90
37052;DHT22;22964;52.272;13.356;2022-12-07T00:59:03;6.80;77.90
37052;DHT22;22964;52.272;13.356;2022-12-07T01:01:31;6.80;77.90
37052;DHT22;22964;52.272;13.356;2022-12-07T01:03:57;6.70;77.80
37052;DHT22;22964;52.272;13.356;2022-12-07T01:06:24;6.70;78.00
37052;DHT22;22964;52.272;13.356;2022-12-07T01:08:50;6.70;78.00
37052;DHT22;22964;52.272;13.356;2022-12-07T01:11:18;6.70;78.10
37052;DHT22;22964;52.272;13.356;2022-12-07T01:13:45;6.70;78.00
37052;DHT22;22964;52.272;13.356;2022-12-07T01:16:15;6.60;78.00
37052;DHT22;22964;52.272;13.356;2022-12-07T01:18:41;6.60;78.10
37052;DHT22;22964;52.272;13.356;2022-12-07T01:21:14;6.60;78.10
37052;DHT22;22964;52.272;13.356;2022-12-07T01:23:40;6.60;78.10
37052;DHT22;22964;52.272;13.356;2022-12-07T01:26:08;6.60;78.30
37052;DHT22;22964;52.272;13.356;2022-12-07T01:28:34;6.60;78.30
37052;DHT22;22964;52.272;13.356;2022-12-07T01:31:03;6.60;78.30
37052;DHT22;22964;52.272;13.356;2022-12-07T01:33:31;6.60;78.30
37052;DHT22;22964;52.272;13.356;2022-12-07T01:36:03;6.50;78.30
37052;DHT22;22964;52.272;13.356;2022-12-07T01:38:30;6.50;78.30
37052;DHT22;22964;52.272;13.356;2022-12-07T01:40:56;6.50;78.50
37052;DHT22;22964;52.272;13.356;2022-12-07T01:43:24;6.50;78.30
37052;DHT22;22964;52.272;13.356;2022-12-07T01:45:51;6.50;78.20
37052;DHT22;22964;52.272;13.356;2022-12-07T01:48:19;6.50;78.30
37052;DHT22;22964;52.272;13.356;2022-12-07T01:50:48;6.50;78.30
37052;DHT22;22964;52.272;13.356;2022-12-07T01:53:16;6.50;78.30
37052;DHT22;22964;52.272;13.356;2022-12-07T01:55:44;6.50;78.40
37052;DHT22;22964;52.272;13.356;2022-12-07T01:58:11;6.50;78.40
37052;DHT22;22964;52.272;13.356;2022-12-07T02:00:38;6.50;78.30
37052;DHT22;22964;52.272;13.356;2022-12-07T02:05:46;6.40;78.40
37052;DHT22;22964;52.272;13.356;2022-12-07T02:08:12;6.40;79.30
37052;DHT22;22964;52.272;13.356;2022-12-07T02:10:39;6.40;78.40
37052;DHT22;22964;52.272;13.356;2022-12-07T02:32:13;6.20;78.90
37052;DHT22;22964;52.272;13.356;2022-12-07T02:34:55;6.20;79.00
37052;DHT22;22964;52.272;13.356;2022-12-07T02:40:35;6.20;79.10
37052;DHT22;22964;52.272;13.356;2022-12-07T02:43:26;6.10;79.10
37052;DHT22;22964;52.272;13.356;2022-12-07T02:45:56;6.10;79.20
37052;DHT22;22964;52.272;13.356;2022-12-07T02:48:24;6.10;79.30
37052;DHT22;22964;52.272;13.356;2022-12-07T02:50:52;6.10;79.20
37052;DHT22;22964;52.272;13.356;2022-12-07T02:53:38;6.10;79.20
37052;DHT22;22964;52.272;13.356;2022-12-07T02:57:24;6.10;79.40
37052;DHT22;22964;52.272;13.356;2022-12-07T02:59:42;6.10;79.40
37052;DHT22;22964;52.272;13.356;2022-12-07T03:05:18;6.10;79.70
37052;DHT22;22964;52.272;13.356;2022-12-07T03:08:02;6.00;79.60
37052;DHT22;22964;52.272;13.356;2022-12-07T03:11:15;6.00;79.60
37052;DHT22;22964;52.272;13.356;2022-12-07T03:13:47;6.00;79.60
37052;DHT22;22964;52.272;13.356;2022-12-07T03:16:21;6.10;79.80
37052;DHT22;22964;52.272;13.356;2022-12-07T03:19:06;6.10;79.80
37052;DHT22;22964;52.272;13.356;2022-12-07T03:21:57;6.00;79.60
37052;DHT22;22964;52.272;13.356;2022-12-07T03:24:46;6.00;79.70
37052;DHT22;22964;52.272;13.356;2022-12-07T03:27:37;6.00;79.70
37052;DHT22;22964;52.272;13.356;2022-12-07T03:32:39;6.00;79.80
37052;DHT22;22964;52.272;13.356;2022-12-07T03:35:18;6.00;79.80
37052;DHT22;22964;52.272;13.356;2022-12-07T03:40:25;6.00;79.90
37052;DHT22;22964;52.272;13.356;2022-12-07T03:42:53;6.00;79.90
37052;DHT22;22964;52.272;13.356;2022-12-07T03:45:24;6.00;80.00
37052;DHT22;22964;52.272;13.356;2022-12-07T03:53:39;6.00;80.90
37052;DHT22;22964;52.272;13.356;2022-12-07T03:56:07;6.00;80.10
37052;DHT22;22964;52.272;13.356;2022-12-07T03:58:34;6.00;80.30
37052;DHT22;22964;52.272;13.356;2022-12-07T04:01:00;6.00;80.30
37052;DHT22;22964;52.272;13.356;2022-12-07T04:03:26;6.00;80.50
37052;DHT22;22964;52.272;13.356;2022-12-07T04:05:52;6.00;80.50
37052;DHT22;22964;52.272;13.356;2022-12-07T04:08:18;6.00;80.50
37052;DHT22;22964;52.272;13.356;2022-12-07T04:10:44;6.00;80.60
37052;DHT22;22964;52.272;13.356;2022-12-07T04:13:10;6.00;80.70
37052;DHT22;22964;52.272;13.356;2022-12-07T04:15:35;6.00;80.80
37052;DHT22;22964;52.272;13.356;2022-12-07T04:18:01;6.00;80.90
37052;DHT22;22964;52.272;13.356;2022-12-07T04:20:27;6.10;81.10
37052;DHT22;22964;52.272;13.356;2022-12-07T04:22:52;6.10;81.10
37052;DHT22;22964;52.272;13.356;2022-12-07T04:25:18;6.10;81.10
37052;DHT22;22964;52.272;13.356;2022-12-07T04:27:44;6.10;81.20
37052;DHT22;22964;52.272;13.356;2022-12-07T04:30:10;6.10;81.30
37052;DHT22;22964;52.272;13.356;2022-12-07T04:32:35;6.10;81.30
37052;DHT22;22964;52.272;13.356;2022-12-07T04:35:02;6.20;81.50
37052;DHT22;22964;52.272;13.356;2022-12-07T04:37:28;6.20;81.60
37052;DHT22;22964;52.272;13.356;2022-12-07T04:39:53;6.20;81.60
37052;DHT22;22964;52.272;13.356;2022-12-07T04:42:19;6.20;81.60
37052;DHT22;22964;52.272;13.356;2022-12-07T04:44:45;6.20;81.60
37052;DHT22;22964;52.272;13.356;2022-12-07T04:47:10;6.20;81.70
37052;DHT22;22964;52.272;13.356;2022-12-07T04:49:36;6.20;81.60
37052;DHT22;22964;52.272;13.356;2022-12-07T04:52:02;6.30;81.70
37052;DHT22;22964;52.272;13.356;2022-12-07T04:54:28;6.30;81.70
37052;DHT22;22964;52.272;13.356;2022-12-07T04:56:53;6.30;82.50
37052;DHT22;22964;52.272;13.356;2022-12-07T04:59:19;6.30;81.60
37052;DHT22;22964;52.272;13.356;2022-12-07T05:01:45;6.30;81.50
37052;DHT22;22964;52.272;13.356;2022-12-07T05:04:11;6.30;81.40
37052;DHT22;22964;52.272;13.356;2022-12-07T05:06:36;6.30;81.30
37052;DHT22;22964;52.272;13.356;2022-12-07T05:09:03;6.30;81.20
37052;DHT22;22964;52.272;13.356;2022-12-07T05:11:29;6.30;81.20
37052;DHT22;22964;52.272;13.356;2022-12-07T05:14:15;6.30;81.20
37052;DHT22;22964;52.272;13.356;2022-12-07T05:16:42;6.30;81.20
37052;DHT22;22964;52.272;13.356;2022-12-07T05:19:09;6.30;81.20
37052;DHT22;22964;52.272;13.356;2022-12-07T05:21:35;6.20;81.10
37052;DHT22;22964;52.272;13.356;2022-12-07T05:24:02;6.20;81.10
37052;DHT22;22964;52.272;13.356;2022-12-07T05:26:28;6.20;81.20
37052;DHT22;22964;52.272;13.356;2022-12-07T05:28:55;6.20;82.10
37052;DHT22;22964;52.272;13.356;2022-12-07T05:31:22;6.20;81.50
37052;DHT22;22964;52.272;13.356;2022-12-07T05:33:48;6.20;81.60
37052;DHT22;22964;52.272;13.356;2022-12-07T05:36:14;6.20;81.60
37052;DHT22;22964;52.272;13.356;2022-12-07T05:38:40;6.20;81.70
37052;DHT22;22964;52.272;13.356;2022-12-07T05:41:08;6.20;81.80
37052;DHT22;22964;52.272;13.356;2022-12-07T05:43:54;6.20;81.90
37052;DHT22;22964;52.272;13.356;2022-12-07T05:46:20;6.20;82.00
37052;DHT22;22964;52.272;13.356;2022-12-07T05:48:46;6.20;82.00
37052;DHT22;22964;52.272;13.356;2022-12-07T05:51:12;6.30;82.10
37052;DHT22;22964;52.272;13.356;2022-12-07T05:53:38;6.30;82.20
37052;DHT22;22964;52.272;13.356;2022-12-07T05:56:04;6.30;82.30
37052;DHT22;22964;52.272;13.356;2022-12-07T05:58:29;6.30;82.30
37052;DHT22;22964;52.272;13.356;2022-12-07T06:01:14;6.30;82.40
37052;DHT22;22964;52.272;13.356;2022-12-07T06:03:39;6.30;82.60
37052;DHT22;22964;52.272;13.356;2022-12-07T06:06:05;6.30;82.40
37052;DHT22;22964;52.272;13.356;2022-12-07T06:08:31;6.40;82.50
37052;DHT22;22964;52.272;13.356;2022-12-07T06:10:56;6.40;82.60
37052;DHT22;22964;52.272;13.356;2022-12-07T06:13:41;6.40;82.60
37052;DHT22;22964;52.272;13.356;2022-12-07T06:16:06;6.40;82.80
37052;DHT22;22964;52.272;13.356;2022-12-07T06:18:32;6.50;82.80
37052;DHT22;22964;52.272;13.356;2022-12-07T06:20:58;6.50;82.80
37052;DHT22;22964;52.272;13.356;2022-12-07T06:23:23;6.50;82.90
37052;DHT22;22964;52.272;13.356;2022-12-07T06:25:49;6.50;83.00
37052;DHT22;22964;52.272;13.356;2022-12-07T06:28:15;6.60;83.10
37052;DHT22;22964;52.272;13.356;2022-12-07T06:30:40;6.60;83.10
37052;DHT22;22964;52.272;13.356;2022-12-07T06:33:06;6.60;83.20
37052;DHT22;22964;52.272;13.356;2022-12-07T06:35:33;6.70;83.30
37052;DHT22;22964;52.272;13.356;2022-12-07T06:37:59;6.70;83.20
37052;DHT22;22964;52.272;13.356;2022-12-07T06:40:24;6.70;84.00
37052;DHT22;22964;52.272;13.356;2022-12-07T06:42:50;6.70;83.20
37052;DHT22;22964;52.272;13.356;2022-12-07T06:45:16;6.70;83.20
37052;DHT22;22964;52.272;13.356;2022-12-07T06:47:41;6.80;83.30
37052;DHT22;22964;52.272;13.356;2022-12-07T06:50:07;6.80;83.30
37052;DHT22;22964;52.272;13.356;2022-12-07T06:52:33;6.80;83.30
37052;DHT22;22964;52.272;13.356;2022-12-07T06:54:59;6.90;83.40
37052;DHT22;22964;52.272;13.356;2022-12-07T06:57:25;6.90;83.40
37052;DHT22;22964;52.272;13.356;2022-12-07T06:59:51;6.90;83.40
37052;DHT22;22964;52.272;13.356;2022-12-07T07:02:17;6.90;83.40
37052;DHT22;22964;52.272;13.356;2022-12-07T07:04:43;7.00;83.50
37052;DHT22;22964;52.272;13.356;2022-12-07T07:07:09;7.00;84.30
37052;DHT22;22964;52.272;13.356;2022-12-07T07:09:34;7.00;83.50
37052;DHT22;22964;52.272;13.356;2022-12-07T07:12:00;7.00;83.40
37052;DHT22;22964;52.272;13.356;2022-12-07T07:14:26;7.10;83.40
37052;DHT22;22964;52.272;13.356;2022-12-07T07:16:52;7.10;84.30
37052;DHT22;22964;52.272;13.356;2022-12-07T07:19:17;7.10;83.40
37052;DHT22;22964;52.272;13.356;2022-12-07T07:21:43;7.10;83.40
37052;DHT22;22964;52.272;13.356;2022-12-07T07:24:09;7.10;83.40
37052;DHT22;22964;52.272;13.356;2022-12-07T07:26:34;7.10;83.30
37052;DHT22;22964;52.272;13.356;2022-12-07T07:29:00;7.10;83.30
37052;DHT22;22964;52.272;13.356;2022-12-07T07:31:26;7.20;83.40
37052;DHT22;22964;52.272;13.356;2022-12-07T07:33:51;7.20;83.30
37052;DHT22;22964;52.272;13.356;2022-12-07T07:36:18;7.20;83.30
37052;DHT22;22964;52.272;13.356;2022-12-07T07:38:43;7.20;83.10
37052;DHT22;22964;52.272;13.356;2022-12-07T07:41:09;7.20;83.00
37052;DHT22;22964;52.272;13.356;2022-12-07T07:43:35;7.30;83.10
37052;DHT22;22964;52.272;13.356;2022-12-07T07:46:00;7.20;83.00
37052;DHT22;22964;52.272;13.356;2022-12-07T07:48:26;7.30;83.10
37052;DHT22;22964;52.272;13.356;2022-12-07T07:50:52;7.30;83.20
37052;DHT22;22964;52.272;13.356;2022-12-07T07:53:17;7.30;83.20
37052;DHT22;22964;52.272;13.356;2022-12-07T07:55:53;7.40;83.20
37052;DHT22;22964;52.272;13.356;2022-12-07T07:58:19;7.30;83.30
37052;DHT22;22964;52.272;13.356;2022-12-07T08:00:45;7.40;83.40
37052;DHT22;22964;52.272;13.356;2022-12-07T08:03:11;7.30;83.40
37052;DHT22;22964;52.272;13.356;2022-12-07T08:05:37;7.40;83.50
37052;DHT22;22964;52.272;13.356;2022-12-07T08:08:03;7.40;83.60
37052;DHT22;22964;52.272;13.356;2022-12-07T08:10:29;7.40;83.60
37052;DHT22;22964;52.272;13.356;2022-12-07T08:12:58;7.40;83.60
37052;DHT22;22964;52.272;13.356;2022-12-07T08:15:43;7.40;83.60
37052;DHT22;22964;52.272;13.356;2022-12-07T08:18:10;7.50;84.50
37052;DHT22;22964;52.272;13.356;2022-12-07T08:20:37;7.50;83.70
37052;DHT22;22964;52.272;13.356;2022-12-07T08:23:04;7.50;83.70
37052;DHT22;22964;52.272;13.356;2022-12-07T08:25:30;7.50;83.70
37052;DHT22;22964;52.272;13.356;2022-12-07T08:27:55;7.50;83.60
37052;DHT22;22964;52.272;13.356;2022-12-07T08:30:21;7.50;83.60
37052;DHT22;22964;52.272;13.356;2022-12-07T08:32:48;7.60;83.60
37052;DHT22;22964;52.272;13.356;2022-12-07T08:35:14;7.60;83.60
37052;DHT22;22964;52.272;13.356;2022-12-07T08:37:40;7.60;83.50
37052;DHT22;22964;52.272;13.356;2022-12-07T08:40:08;7.60;83.40
37052;DHT22;22964;52.272;13.356;2022-12-07T08:42:34;7.60;83.30
37052;DHT22;22964;52.272;13.356;2022-12-07T08:45:13;7.60;83.30
37052;DHT22;22964;52.272;13.356;2022-12-07T08:47:53;7.60;83.20
37052;DHT22;22964;52.272;13.356;2022-12-07T08:50:19;7.70;83.00
37052;DHT22;22964;52.272;13.356;2022-12-07T08:52:49;7.70;82.70
37052;DHT22;22964;52.272;13.356;2022-12-07T08:55:17;7.70;82.20
37052;DHT22;22964;52.272;13.356;2022-12-07T08:57:43;7.70;81.90
37052;DHT22;22964;52.272;13.356;2022-12-07T09:00:09;7.80;81.40
37052;DHT22;22964;52.272;13.356;2022-12-07T09:02:35;7.70;81.30
37052;DHT22;22964;52.272;13.356;2022-12-07T09:05:01;7.80;81.40
37052;DHT22;22964;52.272;13.356;2022-12-07T09:07:27;7.80;81.50
37052;DHT22;22964;52.272;13.356;2022-12-07T09:09:53;7.80;81.70
37052;DHT22;22964;52.272;13.356;2022-12-07T09:12:18;7.90;81.80
37052;DHT22;22964;52.272;13.356;2022-12-07T09:14:44;7.90;81.90
37052;DHT22;22964;52.272;13.356;2022-12-07T09:17:11;7.90;81.80
37052;DHT22;22964;52.272;13.356;2022-12-07T09:19:38;7.90;81.60
37052;DHT22;22964;52.272;13.356;2022-12-07T09:22:04;8.00;81.60
37052;DHT22;22964;52.272;13.356;2022-12-07T09:24:31;8.00;81.40
37052;DHT22;22964;52.272;13.356;2022-12-07T09:26:57;8.00;81.30
37052;DHT22;22964;52.272;13.356;2022-12-07T09:29:23;8.00;81.10
37052;DHT22;22964;52.272;13.356;2022-12-07T09:31:49;8.10;80.70
37052;DHT22;22964;52.272;13.356;2022-12-07T09:34:15;8.10;80.30
37052;DHT22;22964;52.272;13.356;2022-12-07T09:36:41;8.10;79.60
37052;DHT22;22964;52.272;13.356;2022-12-07T09:39:08;8.10;79.10
37052;DHT22;22964;52.272;13.356;2022-12-07T09:41:38;8.10;79.10
37052;DHT22;22964;52.272;13.356;2022-12-07T09:44:11;8.10;78.80
37052;DHT22;22964;52.272;13.356;2022-12-07T09:46:40;8.10;79.10
37052;DHT22;22964;52.272;13.356;2022-12-07T09:49:14;8.10;78.80
37052;DHT22;22964;52.272;13.356;2022-12-07T09:51:42;8.10;78.20
37052;DHT22;22964;52.272;13.356;2022-12-07T09:54:08;8.10;78.00
37052;DHT22;22964;52.272;13.356;2022-12-07T09:56:37;8.10;78.10
37052;DHT22;22964;52.272;13.356;2022-12-07T09:59:03;8.10;78.10
37052;DHT22;22964;52.272;13.356;2022-12-07T10:01:31;8.10;77.80
37052;DHT22;22964;52.272;13.356;2022-12-07T10:04:24;8.10;77.60
37052;DHT22;22964;52.272;13.356;2022-12-07T10:06:50;8.10;76.60
37052;DHT22;22964;52.272;13.356;2022-12-07T10:09:18;8.10;76.30
37052;DHT22;22964;52.272;13.356;2022-12-07T10:14:33;8.10;77.40
37052;DHT22;22964;52.272;13.356;2022-12-07T10:17:00;8.10;77.70
37052;DHT22;22964;52.272;13.356;2022-12-07T10:19:32;8.10;78.70
37052;DHT22;22964;52.272;13.356;2022-12-07T10:22:10;8.10;77.50
37052;DHT22;22964;52.272;13.356;2022-12-07T10:24:38;8.10;78.10
37052;DHT22;22964;52.272;13.356;2022-12-07T10:27:29;8.10;77.60
37052;DHT22;22964;52.272;13.356;2022-12-07T10:29:57;8.20;77.50
37052;DHT22;22964;52.272;13.356;2022-12-07T10:32:34;8.20;77.70
37052;DHT22;22964;52.272;13.356;2022-12-07T10:35:27;8.20;77.70
37052;DHT22;22964;52.272;13.356;2022-12-07T10:37:55;8.30;77.70
37052;DHT22;22964;52.272;13.356;2022-12-07T10:46:01;8.30;77.40
37052;DHT22;22964;52.272;13.356;2022-12-07T10:48:46;8.30;77.20
37052;DHT22;22964;52.272;13.356;2022-12-07T10:54:32;8.40;76.90
37052;DHT22;22964;52.272;13.356;2022-12-07T10:57:24;8.40;77.30
37052;DHT22;22964;52.272;13.356;2022-12-07T11:00:12;8.40;77.00
37052;DHT22;22964;52.272;13.356;2022-12-07T11:11:13;8.50;77.70
37052;DHT22;22964;52.272;13.356;2022-12-07T11:13:53;8.50;77.00
37052;DHT22;22964;52.272;13.356;2022-12-07T11:21:49;8.60;77.00
37052;DHT22;22964;52.272;13.356;2022-12-07T11:27:30;8.60;77.10
37052;DHT22;22964;52.272;13.356;2022-12-07T11:30:34;8.60;76.90
37052;DHT22;22964;52.272;13.356;2022-12-07T11:39:10;8.60;76.40
37052;DHT22;22964;52.272;13.356;2022-12-07T11:41:39;8.60;77.00
37052;DHT22;22964;52.272;13.356;2022-12-07T11:44:07;8.70;77.10
37052;DHT22;22964;52.272;13.356;2022-12-07T11:46:54;8.60;77.00
37052;DHT22;22964;52.272;13.356;2022-12-07T11:49:42;8.60;76.50
37052;DHT22;22964;52.272;13.356;2022-12-07T11:52:25;8.70;76.80
37052;DHT22;22964;52.272;13.356;2022-12-07T11:54:53;8.70;77.10
37052;DHT22;22964;52.272;13.356;2022-12-07T11:57:30;8.70;77.50
37052;DHT22;22964;52.272;13.356;2022-12-07T12:00:03;8.70;77.30
37052;DHT22;22964;52.272;13.356;2022-12-07T12:02:55;8.80;77.50
37052;DHT22;22964;52.272;13.356;2022-12-07T12:05:25;8.80;77.10
37052;DHT22;22964;52.272;13.356;2022-12-07T12:08:15;8.80;77.30
37052;DHT22;22964;52.272;13.356;2022-12-07T12:11:20;8.80;77.10
37052;DHT22;22964;52.272;13.356;2022-12-07T12:22:39;8.90;76.50
37052;DHT22;22964;52.272;13.356;2022-12-07T12:25:13;9.00;77.60
37052;DHT22;22964;52.272;13.356;2022-12-07T12:27:46;9.00;75.70
37052;DHT22;22964;52.272;13.356;2022-12-07T12:33:12;9.00;75.50
37052;DHT22;22964;52.272;13.356;2022-12-07T12:35:38;9.00;75.60
37052;DHT22;22964;52.272;13.356;2022-12-07T12:38:30;9.00;75.50
37052;DHT22;22964;52.272;13.356;2022-12-07T12:40:57;9.00;74.90
37052;DHT22;22964;52.272;13.356;2022-12-07T12:43:41;9.10;75.50
37052;DHT22;22964;52.272;13.356;2022-12-07T12:46:50;9.00;75.80
37052;DHT22;22964;52.272;13.356;2022-12-07T12:51:43;9.00;75.40
37052;DHT22;22964;52.272;13.356;2022-12-07T12:56:51;9.10;76.40
37052;DHT22;22964;52.272;13.356;2022-12-07T13:26:36;9.00;74.90
37052;DHT22;22964;52.272;13.356;2022-12-07T13:31:54;9.00;75.00
37052;DHT22;22964;52.272;13.356;2022-12-07T13:39:50;9.00;74.90
37052;DHT22;22964;52.272;13.356;2022-12-07T13:42:31;9.00;74.90
37052;DHT22;22964;52.272;13.356;2022-12-07T13:45:00;8.90;75.00
37052;DHT22;22964;52.272;13.356;2022-12-07T13:47:34;9.00;75.40
37052;DHT22;22964;52.272;13.356;2022-12-07T13:50:15;8.90;75.40
37052;DHT22;22964;52.272;13.356;2022-12-07T13:52:46;8.90;75.40
37052;DHT22;22964;52.272;13.356;2022-12-07T13:55:15;8.90;75.30
37052;DHT22;22964;52.272;13.356;2022-12-07T13:57:43;8.90;75.40
37052;DHT22;22964;52.272;13.356;2022-12-07T14:00:19;8.90;75.10
37052;DHT22;22964;52.272;13.356;2022-12-07T14:08:05;8.90;76.00
37052;DHT22;22964;52.272;13.356;2022-12-07T14:12:57;8.90;75.20
37052;DHT22;22964;52.272;13.356;2022-12-07T14:15:29;8.90;75.40
37052;DHT22;22964;52.272;13.356;2022-12-07T14:17:56;8.90;75.20
37052;DHT22;22964;52.272;13.356;2022-12-07T14:20:48;8.90;75.40
37052;DHT22;22964;52.272;13.356;2022-12-07T14:23:25;8.90;74.80
37052;DHT22;22964;52.272;13.356;2022-12-07T14:25:53;8.80;74.80
37052;DHT22;22964;52.272;13.356;2022-12-07T14:28:34;8.80;75.00
37052;DHT22;22964;52.272;13.356;2022-12-07T14:31:01;8.80;75.10
37052;DHT22;22964;52.272;13.356;2022-12-07T14:33:27;8.80;75.20
37052;DHT22;22964;52.272;13.356;2022-12-07T14:35:53;8.70;75.30
37052;DHT22;22964;52.272;13.356;2022-12-07T14:38:24;8.70;75.80
37052;DHT22;22964;52.272;13.356;2022-12-07T14:40:51;8.70;74.90
37052;DHT22;22964;52.272;13.356;2022-12-07T14:43:18;8.70;74.80
37052;DHT22;22964;52.272;13.356;2022-12-07T14:45:45;8.70;75.30
37052;DHT22;22964;52.272;13.356;2022-12-07T14:48:12;8.60;75.10
37052;DHT22;22964;52.272;13.356;2022-12-07T14:50:43;8.60;75.20
37052;DHT22;22964;52.272;13.356;2022-12-07T14:53:15;8.60;75.20
37052;DHT22;22964;52.272;13.356;2022-12-07T14:55:41;8.60;75.00
37052;DHT22;22964;52.272;13.356;2022-12-07T14:58:16;8.60;74.90
37052;DHT22;22964;52.272;13.356;2022-12-07T15:00:42;8.60;74.90
37052;DHT22;22964;52.272;13.356;2022-12-07T15:03:08;8.50;75.00
37052;DHT22;22964;52.272;13.356;2022-12-07T15:05:34;8.50;74.90
37052;DHT22;22964;52.272;13.356;2022-12-07T15:08:01;8.40;75.10
37052;DHT22;22964;52.272;13.356;2022-12-07T15:10:32;8.50;75.10
37052;DHT22;22964;52.272;13.356;2022-12-07T15:13:00;8.50;74.80
37052;DHT22;22964;52.272;13.356;2022-12-07T15:15:47;8.40;74.90
37052;DHT22;22964;52.272;13.356;2022-12-07T15:18:14;8.40;75.10
37052;DHT22;22964;52.272;13.356;2022-12-07T15:20:40;8.40;75.00
37052;DHT22;22964;52.272;13.356;2022-12-07T15:23:06;8.30;75.00
37052;DHT22;22964;52.272;13.356;2022-12-07T15:25:32;8.30;75.10
37052;DHT22;22964;52.272;13.356;2022-12-07T15:27:57;8.30;75.30
37052;DHT22;22964;52.272;13.356;2022-12-07T15:30:23;8.30;75.40
37052;DHT22;22964;52.272;13.356;2022-12-07T15:32:50;8.20;75.40
37052;DHT22;22964;52.272;13.356;2022-12-07T15:35:15;8.20;75.40
37052;DHT22;22964;52.272;13.356;2022-12-07T15:37:41;8.20;75.40
37052;DHT22;22964;52.272;13.356;2022-12-07T15:40:08;8.20;75.30
37052;DHT22;22964;52.272;13.356;2022-12-07T15:42:34;8.10;75.30
37052;DHT22;22964;52.272;13.356;2022-12-07T15:45:00;8.10;75.40
37052;DHT22;22964;52.272;13.356;2022-12-07T15:47:37;8.10;75.60
37052;DHT22;22964;52.272;13.356;2022-12-07T15:50:04;8.10;75.50
37052;DHT22;22964;52.272;13.356;2022-12-07T15:52:30;8.10;75.60
37052;DHT22;22964;52.272;13.356;2022-12-07T15:54:56;8.00;75.60
37052;DHT22;22964;52.272;13.356;2022-12-07T15:57:22;8.00;75.50
37052;DHT22;22964;52.272;13.356;2022-12-07T15:59:48;7.90;75.60
37052;DHT22;22964;52.272;13.356;2022-12-07T16:02:13;7.90;75.60
37052;DHT22;22964;52.272;13.356;2022-12-07T16:04:39;7.90;75.80
37052;DHT22;22964;52.272;13.356;2022-12-07T16:07:05;7.80;75.80
37052;DHT22;22964;52.272;13.356;2022-12-07T16:09:31;7.80;75.80
37052;DHT22;22964;52.272;13.356;2022-12-07T16:11:57;7.80;76.00
37052;DHT22;22964;52.272;13.356;2022-12-07T16:14:22;7.80;76.00
37052;DHT22;22964;52.272;13.356;2022-12-07T16:16:48;7.70;76.10
37052;DHT22;22964;52.272;13.356;2022-12-07T16:19:14;7.70;76.10
37052;DHT22;22964;52.272;13.356;2022-12-07T16:21:40;7.70;76.20
37052;DHT22;22964;52.272;13.356;2022-12-07T16:24:06;7.70;76.40
37052;DHT22;22964;52.272;13.356;2022-12-07T16:26:32;7.60;76.30
37052;DHT22;22964;52.272;13.356;2022-12-07T16:28:58;7.60;76.40
37052;DHT22;22964;52.272;13.356;2022-12-07T16:31:26;7.60;76.50
37052;DHT22;22964;52.272;13.356;2022-12-07T16:33:54;7.60;76.50
37052;DHT22;22964;52.272;13.356;2022-12-07T16:36:20;7.50;76.50
37052;DHT22;22964;52.272;13.356;2022-12-07T16:38:48;7.60;76.60
37052;DHT22;22964;52.272;13.356;2022-12-07T16:41:13;7.60;76.60
37052;DHT22;22964;52.272;13.356;2022-12-07T16:43:40;7.60;76.60
37052;DHT22;22964;52.272;13.356;2022-12-07T16:46:06;7.60;76.70
37052;DHT22;22964;52.272;13.356;2022-12-07T16:48:35;7.50;76.40
37052;DHT22;22964;52.272;13.356;2022-12-07T16:51:04;7.50;76.50
37052;DHT22;22964;52.272;13.356;2022-12-07T16:53:29;7.50;76.50
37052;DHT22;22964;52.272;13.356;2022-12-07T16:55:55;7.50;76.70
37052;DHT22;22964;52.272;13.356;2022-12-07T16:58:21;7.50;76.70
37052;DHT22;22964;52.272;13.356;2022-12-07T17:00:46;7.50;76.70
37052;DHT22;22964;52.272;13.356;2022-12-07T17:03:12;7.40;76.60
37052;DHT22;22964;52.272;13.356;2022-12-07T17:05:44;7.40;76.60
37052;DHT22;22964;52.272;13.356;2022-12-07T17:08:11;7.40;76.60
37052;DHT22;22964;52.272;13.356;2022-12-07T17:10:41;7.40;76.60
37052;DHT22;22964;52.272;13.356;2022-12-07T17:13:07;7.30;76.60
37052;DHT22;22964;52.272;13.356;2022-12-07T17:18:22;7.30;76.80
37052;DHT22;22964;52.272;13.356;2022-12-07T17:20:48;7.30;76.90
37052;DHT22;22964;52.272;13.356;2022-12-07T17:23:13;7.30;77.00
37052;DHT22;22964;52.272;13.356;2022-12-07T17:25:39;7.30;77.20
37052;DHT22;22964;52.272;13.356;2022-12-07T17:28:05;7.20;77.20
37052;DHT22;22964;52.272;13.356;2022-12-07T17:30:30;7.20;77.20
37052;DHT22;22964;52.272;13.356;2022-12-07T17:32:56;7.20;77.30
37052;DHT22;22964;52.272;13.356;2022-12-07T17:35:22;7.20;77.40
37052;DHT22;22964;52.272;13.356;2022-12-07T17:37:47;7.20;77.50
37052;DHT22;22964;52.272;13.356;2022-12-07T17:40:14;7.20;77.50
37052;DHT22;22964;52.272;13.356;2022-12-07T17:42:40;7.20;77.40
37052;DHT22;22964;52.272;13.356;2022-12-07T17:45:11;7.20;77.40
37052;DHT22;22964;52.272;13.356;2022-12-07T17:47:37;7.20;77.30
37052;DHT22;22964;52.272;13.356;2022-12-07T17:50:05;7.20;77.30
37052;DHT22;22964;52.272;13.356;2022-12-07T17:52:32;7.20;77.30
37052;DHT22;22964;52.272;13.356;2022-12-07T17:55:16;7.10;77.20
37052;DHT22;22964;52.272;13.356;2022-12-07T17:57:42;7.10;77.30
37052;DHT22;22964;52.272;13.356;2022-12-07T18:00:08;7.10;77.30